createdAt,value
2018-02-10T00:00:32.626Z,42.17
2018-02-10T00:03:00.418Z,41.30
2018-02-10T00:05:28.701Z,39.87
2018-02-10T00:07:56.204Z,38.70
2018-02-10T00:10:23.754Z,39.30
2018-02-10T00:12:51.266Z,37.60
2018-02-10T00:15:18.824Z,39.90
2018-02-10T00:17:46.429Z,40.73
2018-02-10T00:20:13.950Z,38.90
2018-02-10T00:22:41.454Z,38.80
2018-02-10T00:25:08.969Z,41.07
2018-02-10T00:27:36.478Z,41.10
2018-02-10T00:30:04.002Z,42.20
2018-02-10T00:32:32.278Z,40.33
2018-02-10T00:35:00.585Z,41.20
2018-02-10T00:37:28.107Z,39.97
2018-02-10T00:39:56.409Z,41.27
2018-02-10T00:42:23.913Z,40.93
2018-02-10T00:44:51.441Z,40.03
2018-02-10T00:47:18.950Z,40.23
2018-02-10T00:49:46.474Z,39.40
2018-02-10T00:52:13.979Z,42.00
2018-02-10T00:54:42.266Z,39.80
2018-02-10T00:57:10.534Z,38.03
2018-02-10T00:59:38.821Z,38.97
2018-02-10T01:02:07.114Z,40.10
2018-02-10T01:04:34.662Z,38.83
2018-02-10T01:07:02.182Z,40.13
2018-02-10T01:09:29.686Z,39.50
2018-02-10T01:11:57.205Z,41.57
2018-02-10T01:14:24.707Z,37.77
2018-02-10T01:16:52.249Z,39.50
2018-02-10T01:19:19.753Z,39.70
2018-02-10T01:21:47.369Z,43.07
2018-02-10T01:24:14.934Z,44.23
2018-02-10T01:26:42.462Z,42.40
2018-02-10T01:29:10.734Z,38.83
2018-02-10T01:31:38.259Z,41.07
2018-02-10T01:34:05.782Z,39.07
2018-02-10T01:36:33.342Z,42.00
2018-02-10T01:39:00.856Z,40.80
2018-02-10T01:41:28.385Z,41.43
2018-02-10T01:43:55.924Z,41.57
2018-02-10T01:46:23.452Z,43.37
2018-02-10T01:48:51.722Z,40.40
2018-02-10T01:51:19.247Z,37.70
2018-02-10T01:53:46.770Z,42.07
2018-02-10T01:56:14.286Z,41.03
2018-02-10T01:58:41.894Z,39.70
2018-02-10T02:01:09.417Z,38.67
2018-02-10T02:03:37.718Z,37.90
2018-02-10T02:06:05.291Z,38.87
2018-02-10T02:08:32.794Z,38.67
2018-02-10T02:11:00.407Z,38.97
2018-02-10T02:13:27.958Z,40.40
2018-02-10T02:15:55.482Z,41.17
2018-02-10T02:18:23.074Z,41.97
2018-02-10T02:20:50.594Z,43.87
2018-02-10T02:23:18.106Z,40.73
2018-02-10T02:25:45.629Z,43.33
2018-02-10T02:28:13.898Z,39.00
2018-02-10T02:30:41.426Z,43.60
2018-02-10T02:33:08.952Z,40.83
2018-02-10T02:35:36.478Z,41.40
2018-02-10T02:38:04.764Z,46.17
2018-02-10T02:40:33.154Z,44.40
2018-02-10T02:43:00.663Z,41.97
2018-02-10T02:45:28.274Z,38.87
2018-02-10T02:47:55.798Z,41.40
2018-02-10T02:50:23.302Z,40.50
2018-02-10T02:52:50.835Z,41.37
2018-02-10T02:55:19.546Z,42.83
2018-02-10T02:57:47.094Z,42.50
2018-02-10T03:00:14.602Z,41.77
2018-02-10T03:02:42.211Z,41.30
2018-02-10T03:05:09.726Z,39.57
2018-02-10T03:07:37.245Z,41.40
2018-02-10T03:12:27.910Z,38.43
2018-02-10T03:14:56.190Z,38.53
2018-02-10T03:17:23.779Z,38.00
2018-02-10T03:19:51.282Z,39.93
2018-02-10T03:22:18.898Z,41.67
2018-02-10T03:24:46.402Z,39.23
2018-02-10T03:27:14.014Z,40.00
2018-02-10T03:29:41.518Z,38.97
2018-02-10T03:32:09.294Z,38.73
2018-02-10T03:34:36.799Z,39.63
2018-02-10T03:37:04.318Z,38.70
2018-02-10T03:39:31.822Z,39.50
2018-02-10T03:41:59.346Z,37.87
2018-02-10T03:44:27.614Z,37.40
2018-02-10T03:46:55.138Z,38.80
2018-02-10T03:49:22.657Z,39.30
2018-02-10T03:51:50.218Z,37.63
2018-02-10T03:54:17.777Z,38.03
2018-02-10T03:56:45.282Z,37.10
2018-02-10T03:59:12.806Z,37.23
2018-02-10T04:01:40.309Z,38.70
2018-02-10T04:04:07.831Z,36.50
2018-02-10T04:06:35.375Z,39.90
2018-02-10T04:09:02.897Z,37.50
2018-02-10T04:11:30.402Z,37.57
2018-02-10T04:13:57.921Z,39.33
2018-02-10T04:16:26.226Z,39.40
2018-02-10T04:18:53.788Z,36.30
2018-02-10T04:21:21.298Z,39.57
2018-02-10T04:23:48.818Z,37.33
2018-02-10T04:26:16.354Z,38.20
2018-02-10T04:28:44.336Z,37.27
2018-02-10T04:31:11.841Z,39.57
2018-02-10T04:33:39.359Z,38.37
2018-02-10T04:36:06.907Z,36.77
2018-02-10T04:38:34.430Z,37.83
2018-02-10T04:41:01.934Z,34.53
2018-02-10T04:43:29.458Z,37.67
2018-02-10T04:45:57.728Z,36.03
2018-02-10T04:48:26.035Z,34.80
2018-02-10T04:50:53.561Z,35.73
2018-02-10T04:53:21.836Z,37.90
2018-02-10T04:55:50.130Z,38.23
2018-02-10T04:58:18.414Z,32.37
2018-02-10T05:00:45.946Z,36.10
2018-02-10T05:03:14.254Z,34.77
2018-02-10T05:05:41.782Z,34.30
2018-02-10T05:08:10.085Z,35.13
2018-02-10T05:10:37.609Z,37.87
2018-02-10T05:13:05.206Z,33.43
2018-02-10T05:15:32.726Z,33.87
2018-02-10T05:18:00.239Z,34.43
2018-02-10T05:20:27.775Z,32.10
2018-02-10T05:22:55.342Z,35.10
2018-02-10T05:25:22.868Z,35.03
2018-02-10T05:27:50.370Z,35.53
2018-02-10T05:30:17.923Z,35.53
2018-02-10T05:32:45.426Z,36.03
2018-02-10T05:35:13.030Z,32.63
2018-02-10T05:37:40.590Z,34.87
2018-02-10T05:40:08.160Z,34.10
2018-02-10T05:42:35.671Z,36.43
2018-02-10T05:45:03.194Z,33.03
2018-02-10T05:47:30.699Z,34.40
2018-02-10T05:49:59.002Z,33.00
2018-02-10T05:52:26.510Z,36.00
2018-02-10T05:54:54.014Z,34.13
2018-02-10T05:57:21.534Z,33.43
2018-02-10T05:59:49.135Z,34.67
2018-02-10T06:02:16.658Z,33.63
2018-02-10T06:04:44.175Z,31.10
2018-02-10T06:07:11.706Z,34.93
2018-02-10T06:09:39.269Z,29.50
2018-02-10T06:12:06.790Z,32.37
2018-02-10T06:14:34.299Z,30.80
2018-02-10T06:17:01.855Z,36.70
2018-02-10T06:19:29.410Z,34.17
2018-02-10T06:21:56.934Z,32.43
2018-02-10T06:24:24.438Z,32.07
2018-02-10T06:26:51.958Z,32.00
2018-02-10T06:29:20.227Z,34.63
2018-02-10T06:31:48.520Z,32.23
2018-02-10T06:34:16.806Z,32.97
2018-02-10T06:36:44.366Z,33.27
2018-02-10T06:39:11.874Z,35.70
2018-02-10T06:41:39.390Z,34.00
2018-02-10T06:44:07.211Z,34.03
2018-02-10T06:46:34.717Z,31.57
2018-02-10T06:49:02.242Z,34.40
2018-02-10T06:51:30.513Z,34.17
2018-02-10T06:53:58.802Z,33.87
2018-02-10T06:56:27.066Z,32.43
2018-02-10T06:58:55.359Z,33.83
2018-02-10T07:01:23.646Z,34.37
2018-02-10T07:03:51.207Z,32.23
2018-02-10T07:06:18.714Z,33.37
2018-02-10T07:08:46.234Z,35.97
2018-02-10T07:11:13.738Z,31.80
2018-02-10T07:13:41.267Z,31.60
2018-02-10T07:16:08.794Z,32.00
2018-02-10T07:18:36.363Z,32.60
2018-02-10T07:21:03.871Z,32.00
2018-02-10T07:23:31.470Z,32.10
2018-02-10T07:25:58.975Z,32.27
2018-02-10T07:28:26.590Z,32.70
2018-02-10T07:30:54.102Z,32.10
2018-02-10T07:33:21.621Z,35.53
2018-02-10T07:35:49.129Z,40.23
2018-02-10T07:38:16.659Z,49.60
2018-02-10T07:40:44.167Z,50.30
2018-02-10T07:43:12.454Z,41.07
2018-02-10T07:45:39.958Z,32.40
2018-02-10T07:48:07.574Z,39.97
2018-02-10T07:50:35.074Z,34.00
2018-02-10T07:53:02.690Z,44.60
2018-02-10T07:55:30.206Z,40.53
2018-02-10T07:57:57.722Z,34.33
2018-02-10T08:00:25.270Z,65.53
2018-02-10T08:02:52.826Z,70.20
2018-02-10T08:05:20.385Z,64.20
2018-02-10T08:07:47.901Z,74.30
2018-02-10T08:10:15.413Z,53.17
2018-02-10T08:12:42.934Z,35.20
2018-02-10T08:15:11.221Z,34.67
2018-02-10T08:17:39.494Z,32.57
2018-02-10T08:20:07.899Z,35.33
2018-02-10T08:22:35.405Z,37.63
2018-02-10T08:25:03.014Z,35.87
2018-02-10T08:27:30.570Z,35.07
2018-02-10T08:29:58.092Z,30.13
2018-02-10T08:32:25.687Z,34.03
2018-02-10T08:34:53.210Z,33.07
2018-02-10T08:37:20.713Z,30.93
2018-02-10T08:39:48.234Z,31.60
2018-02-10T08:42:16.507Z,35.57
2018-02-10T08:44:44.093Z,36.30
2018-02-10T08:47:11.594Z,36.20
2018-02-10T08:49:39.146Z,30.87
2018-02-10T08:52:06.650Z,28.50
2018-02-10T08:54:34.954Z,38.70
2018-02-10T08:57:02.506Z,30.93
2018-02-10T08:59:30.066Z,32.00
2018-02-10T09:01:57.590Z,29.97
2018-02-10T09:04:26.594Z,28.40
2018-02-10T09:06:54.904Z,28.77
2018-02-10T09:09:22.404Z,35.73
2018-02-10T09:11:49.926Z,43.90
2018-02-10T09:14:17.474Z,41.80
2018-02-10T09:16:45.032Z,35.60
2018-02-10T09:19:12.591Z,35.23
2018-02-10T09:21:40.106Z,33.73
2018-02-10T09:24:07.711Z,27.80
2018-02-10T09:26:35.300Z,29.60
2018-02-10T09:29:02.790Z,27.23
2018-02-10T09:31:30.391Z,28.87
2018-02-10T09:33:57.946Z,27.10
2018-02-10T09:36:25.502Z,26.27
2018-02-10T09:38:53.063Z,34.37
2018-02-10T09:41:20.617Z,34.57
2018-02-10T09:43:48.114Z,28.77
2018-02-10T09:46:15.634Z,25.97
2018-02-10T09:48:43.125Z,26.10
2018-02-10T09:51:10.656Z,28.17
2018-02-10T09:53:41.937Z,24.83
2018-02-10T09:56:09.443Z,23.67
2018-02-10T09:58:37.733Z,26.03
2018-02-10T10:01:05.230Z,28.50
2018-02-10T10:03:32.749Z,26.63
2018-02-10T10:06:00.310Z,23.30
2018-02-10T10:08:31.623Z,25.40
2018-02-10T10:10:59.925Z,23.07
2018-02-10T10:13:28.210Z,23.67
2018-02-10T10:15:55.709Z,23.90
2018-02-10T10:18:23.326Z,24.90
2018-02-10T10:20:50.885Z,23.60
2018-02-10T10:23:18.445Z,24.03
2018-02-10T10:25:46.011Z,21.63
2018-02-10T10:28:13.566Z,21.93
2018-02-10T10:30:41.102Z,20.30
2018-02-10T10:33:09.398Z,22.20
2018-02-10T10:35:36.966Z,25.90
2018-02-10T10:38:04.487Z,30.73
2018-02-10T10:40:32.817Z,27.77
2018-02-10T10:43:01.053Z,22.90
2018-02-10T10:45:29.348Z,20.90
2018-02-10T10:47:56.866Z,23.17
2018-02-10T10:50:24.489Z,22.80
2018-02-10T10:52:52.006Z,23.53
2018-02-10T10:55:20.302Z,24.80
2018-02-10T10:57:47.853Z,22.80
2018-02-10T11:00:15.414Z,19.63
2018-02-10T11:02:42.909Z,24.03
2018-02-10T11:05:10.439Z,21.70
2018-02-10T11:07:37.998Z,21.23
2018-02-10T11:10:05.559Z,22.13
2018-02-10T11:12:33.066Z,23.20
2018-02-10T11:15:00.582Z,21.20
2018-02-10T11:17:28.078Z,25.97
2018-02-10T11:19:55.594Z,21.80
2018-02-10T11:22:23.326Z,22.60
2018-02-10T11:24:51.618Z,20.33
2018-02-10T11:27:19.186Z,23.07
2018-02-10T11:29:46.698Z,17.87
2018-02-10T11:32:14.966Z,21.27
2018-02-10T11:34:42.483Z,19.70
2018-02-10T11:37:09.986Z,22.13
2018-02-10T11:39:37.590Z,20.97
2018-02-10T11:42:05.086Z,20.73
2018-02-10T11:44:32.603Z,20.00
2018-02-10T11:47:00.128Z,22.77
2018-02-10T11:49:27.727Z,26.17
2018-02-10T11:51:55.233Z,22.27
2018-02-10T11:54:22.754Z,26.40
2018-02-10T11:56:50.255Z,23.90
2018-02-10T11:59:17.758Z,24.70
2018-02-10T12:01:45.518Z,22.07
2018-02-10T12:04:13.087Z,21.50
2018-02-10T12:06:40.641Z,21.03
2018-02-10T12:09:08.202Z,20.40
2018-02-10T12:11:35.726Z,20.67
2018-02-10T12:14:03.993Z,20.77
2018-02-10T12:16:31.510Z,21.33
2018-02-10T12:18:59.015Z,21.33
2018-02-10T12:21:27.318Z,23.43
2018-02-10T12:23:55.649Z,20.60
2018-02-10T12:26:23.167Z,18.90
2018-02-10T12:28:50.986Z,19.90
2018-02-10T12:31:18.510Z,18.70
2018-02-10T12:33:46.044Z,18.97
2018-02-10T12:36:13.566Z,20.07
2018-02-10T12:38:41.071Z,20.87
2018-02-10T12:41:08.589Z,19.00
2018-02-10T12:43:36.849Z,18.60
2018-02-10T12:46:04.451Z,20.33
2018-02-10T12:48:37.598Z,20.33
2018-02-10T12:51:05.165Z,20.03
2018-02-10T12:53:32.638Z,20.13
2018-02-10T12:56:00.907Z,20.43
2018-02-10T12:58:28.434Z,20.10
2018-02-10T13:00:55.976Z,19.70
2018-02-10T13:03:23.510Z,20.73
2018-02-10T13:05:51.335Z,16.80
2018-02-10T13:08:18.851Z,17.03
2018-02-10T13:10:46.346Z,18.63
2018-02-10T13:13:13.902Z,21.20
2018-02-10T13:15:41.398Z,16.93
2018-02-10T13:18:10.006Z,15.90
2018-02-10T13:20:37.527Z,14.90
2018-02-10T13:23:05.795Z,19.50
2018-02-10T13:25:33.386Z,19.67
2018-02-10T13:28:00.887Z,24.70
2018-02-10T13:30:28.407Z,21.17
2018-02-10T13:32:55.909Z,16.67
2018-02-10T13:35:23.480Z,17.00
2018-02-10T13:37:50.950Z,17.77
2018-02-10T13:40:18.535Z,20.60
2018-02-10T13:42:46.029Z,18.87
2018-02-10T13:45:13.554Z,17.10
2018-02-10T13:47:41.060Z,16.90
2018-02-10T13:50:08.586Z,18.57
2018-02-10T13:52:36.286Z,17.40
2018-02-10T13:55:03.790Z,15.90
2018-02-10T13:57:31.320Z,17.20
2018-02-10T13:59:58.826Z,20.13
2018-02-10T14:02:26.342Z,20.00
2018-02-10T14:04:54.615Z,16.73
2018-02-10T14:07:22.906Z,18.00
2018-02-10T14:09:51.180Z,18.07
2018-02-10T14:12:19.467Z,20.17
2018-02-10T14:14:46.957Z,20.20
2018-02-10T14:17:14.471Z,19.67
2018-02-10T14:19:42.738Z,19.20
2018-02-10T14:22:11.022Z,17.10
2018-02-10T14:24:39.286Z,17.20
2018-02-10T14:27:07.613Z,17.40
2018-02-10T14:29:35.082Z,17.20
2018-02-10T14:32:02.597Z,17.77
2018-02-10T14:34:30.865Z,20.73
2018-02-10T14:36:59.146Z,17.60
2018-02-10T14:39:27.415Z,18.93
2018-02-10T14:41:55.694Z,20.10
2018-02-10T14:44:23.961Z,24.67
2018-02-10T14:46:52.246Z,22.13
2018-02-10T14:49:20.510Z,22.10
2018-02-10T14:51:48.798Z,21.30
2018-02-10T14:54:17.058Z,25.80
2018-02-10T14:56:44.591Z,25.03
2018-02-10T14:59:12.094Z,20.90
2018-02-10T15:01:40.364Z,22.23
2018-02-10T15:04:08.654Z,25.07
2018-02-10T15:06:36.160Z,25.63
2018-02-10T15:09:03.678Z,24.30
2018-02-10T15:11:31.185Z,23.10
2018-02-10T15:13:58.708Z,22.80
2018-02-10T15:16:26.205Z,25.77
2018-02-10T15:18:53.722Z,29.50
2018-02-10T15:21:21.218Z,36.80
2018-02-10T15:23:48.738Z,32.30
2018-02-10T15:26:16.238Z,30.73
2018-02-10T15:28:43.757Z,30.30
2018-02-10T15:34:25.932Z,42.10
2018-02-10T15:36:53.438Z,29.37
2018-02-10T15:39:20.955Z,26.00
2018-02-10T15:41:49.218Z,25.27
2018-02-10T15:44:16.738Z,25.93
2018-02-10T15:46:44.234Z,29.50
2018-02-10T15:49:11.750Z,54.27
2018-02-10T15:51:39.254Z,35.73
2018-02-10T15:54:06.774Z,63.50
2018-02-10T15:56:34.275Z,65.83
2018-02-10T15:59:02.596Z,55.80
2018-02-10T16:01:30.086Z,35.00
2018-02-10T16:03:57.607Z,38.80
2018-02-10T16:06:25.110Z,40.73
2018-02-10T16:08:52.626Z,36.73
2018-02-10T16:11:20.128Z,31.67
2018-02-10T16:13:47.621Z,28.87
2018-02-10T16:16:15.138Z,33.67
2018-02-10T16:18:42.639Z,35.10
2018-02-10T16:21:10.166Z,51.87
2018-02-10T16:23:37.671Z,34.10
2018-02-10T16:26:05.190Z,29.70
2018-02-10T16:28:33.460Z,28.47
2018-02-10T16:31:00.987Z,27.53
2018-02-10T16:33:28.495Z,28.90
2018-02-10T16:35:56.778Z,31.80
2018-02-10T16:38:24.763Z,27.37
2018-02-10T16:40:52.282Z,25.80
2018-02-10T16:43:20.555Z,22.57
2018-02-10T16:45:48.142Z,23.13
2018-02-10T16:48:15.712Z,24.30
2018-02-10T16:50:43.228Z,26.00
2018-02-10T16:53:10.727Z,24.37
2018-02-10T16:55:38.243Z,23.57
2018-02-10T16:58:05.843Z,24.57
2018-02-10T17:00:33.404Z,22.23
2018-02-10T17:03:00.907Z,22.50
2018-02-10T17:05:28.424Z,26.40
2018-02-10T17:07:56.055Z,30.37
2018-02-10T17:10:24.524Z,25.40
2018-02-10T17:12:52.095Z,28.17
2018-02-10T17:15:19.673Z,22.93
2018-02-10T17:17:47.233Z,28.87
2018-02-10T17:20:14.726Z,28.47
2018-02-10T17:22:42.243Z,33.27
2018-02-10T17:25:09.742Z,31.80
2018-02-10T17:27:37.278Z,36.00
2018-02-10T17:30:04.784Z,28.80
2018-02-10T17:32:33.070Z,26.27
2018-02-10T17:35:00.658Z,28.17
2018-02-10T17:37:28.171Z,28.13
2018-02-10T17:39:55.670Z,30.60
2018-02-10T17:42:23.234Z,31.03
2018-02-10T17:44:50.747Z,31.37
2018-02-10T17:47:18.262Z,34.27
2018-02-10T17:49:45.762Z,33.10
2018-02-10T17:52:13.279Z,33.43
2018-02-10T17:54:40.834Z,33.27
2018-02-10T17:57:09.086Z,32.83
2018-02-10T17:59:37.354Z,36.00
2018-02-10T18:02:05.642Z,33.90
2018-02-10T18:04:33.898Z,34.90
2018-02-10T18:07:01.411Z,36.23
2018-02-10T18:09:28.911Z,31.43
2018-02-10T18:11:56.426Z,28.03
2018-02-10T18:14:23.927Z,29.37
2018-02-10T18:16:51.512Z,29.00
2018-02-10T18:19:19.068Z,31.00
2018-02-10T18:21:46.551Z,33.20
2018-02-10T18:24:14.069Z,31.30
2018-02-10T18:26:42.344Z,32.13
2018-02-10T18:29:10.626Z,28.97
2018-02-10T18:31:38.925Z,35.77
2018-02-10T18:34:06.486Z,32.40
2018-02-10T18:36:33.996Z,31.53
2018-02-10T18:39:01.575Z,31.70
2018-02-10T18:41:29.880Z,29.00
2018-02-10T18:43:58.306Z,32.10
2018-02-10T18:46:25.811Z,27.70
2018-02-10T18:48:54.399Z,27.17
2018-02-10T18:51:24.678Z,24.73
2018-02-10T18:53:52.862Z,29.50
2018-02-10T18:56:21.127Z,30.77
2018-02-10T18:58:48.642Z,28.80
2018-02-10T19:01:16.150Z,28.47
2018-02-10T19:03:43.666Z,30.10
2018-02-10T19:06:11.272Z,29.20
2018-02-10T19:08:38.766Z,27.23
2018-02-10T19:11:06.261Z,28.10
2018-02-10T19:13:33.774Z,35.80
2018-02-10T19:16:01.342Z,27.83
2018-02-10T19:18:28.842Z,30.13
2018-02-10T19:20:56.358Z,30.60
2018-02-10T19:23:23.867Z,28.70
2018-02-10T19:25:52.151Z,26.10
2018-02-10T19:28:19.805Z,28.10
2018-02-10T19:30:47.294Z,26.97
2018-02-10T19:33:15.558Z,26.23
2018-02-10T19:35:43.846Z,26.23
2018-02-10T19:38:12.110Z,27.90
2018-02-10T19:40:40.391Z,26.90
2018-02-10T19:43:08.659Z,26.10
2018-02-10T19:45:36.481Z,28.67
2018-02-10T19:48:04.042Z,26.47
2018-02-10T19:50:31.563Z,24.20
2018-02-10T19:52:59.063Z,27.17
2018-02-10T19:55:26.601Z,26.37
2018-02-10T19:57:54.164Z,24.60
2018-02-10T20:00:21.842Z,23.97
2018-02-10T20:02:49.362Z,24.67
2018-02-10T20:05:17.023Z,22.43
2018-02-10T20:07:44.550Z,25.10
2018-02-10T20:10:12.074Z,26.67
2018-02-10T20:12:39.698Z,25.10
2018-02-10T20:15:07.292Z,23.80
2018-02-10T20:17:34.815Z,25.00
2018-02-10T20:20:04.083Z,24.30
2018-02-10T20:22:31.682Z,21.07
2018-02-10T20:24:59.175Z,22.23
2018-02-10T20:27:26.740Z,22.73
2018-02-10T20:29:54.329Z,23.67
2018-02-10T20:32:22.646Z,20.83
2018-02-10T20:34:50.151Z,22.50
2018-02-10T20:37:17.765Z,19.17
2018-02-10T20:39:45.262Z,21.83
2018-02-10T20:42:12.874Z,21.10
2018-02-10T20:44:40.374Z,21.07
2018-02-10T20:47:07.887Z,18.80
2018-02-10T20:49:41.760Z,20.40
2018-02-10T20:52:09.275Z,19.43
2018-02-10T20:54:36.819Z,19.13
2018-02-10T20:57:04.362Z,25.53
2018-02-10T20:59:32.626Z,27.00
2018-02-10T21:02:00.918Z,25.03
2018-02-10T21:04:28.488Z,29.17
2018-02-10T21:06:56.023Z,28.50
2018-02-10T21:09:24.283Z,35.63
2018-02-10T21:11:51.794Z,26.77
2018-02-10T21:14:19.295Z,23.80
2018-02-10T21:16:46.846Z,20.30
2018-02-10T21:19:15.150Z,22.23
2018-02-10T21:21:43.574Z,29.43
2018-02-10T21:24:11.077Z,19.97
2018-02-10T21:26:38.663Z,19.23
2018-02-10T21:29:06.194Z,18.40
2018-02-10T21:31:33.698Z,18.30
2018-02-10T21:34:01.242Z,19.57
2018-02-10T21:36:28.802Z,18.20
2018-02-10T21:38:56.347Z,17.67
2018-02-10T21:41:24.618Z,18.07
2018-02-10T21:43:52.928Z,18.47
2018-02-10T21:46:20.602Z,18.40
2018-02-10T21:48:48.180Z,17.53
2018-02-10T21:51:15.703Z,18.43
2018-02-10T21:53:43.238Z,18.87
2018-02-10T21:56:10.770Z,18.90
2018-02-10T21:58:38.302Z,18.60
2018-02-10T22:01:05.826Z,19.83
2018-02-10T22:03:33.370Z,22.20
2018-02-10T22:06:01.679Z,19.13
2018-02-10T22:08:29.224Z,19.53
2018-02-10T22:10:56.843Z,18.43
2018-02-10T22:13:25.164Z,20.00
2018-02-10T22:15:52.676Z,18.50
2018-02-10T22:18:20.193Z,19.17
2018-02-10T22:20:47.734Z,21.03
2018-02-10T22:23:15.279Z,19.57
2018-02-10T22:25:43.542Z,18.73
2018-02-10T22:28:11.842Z,20.53
2018-02-10T22:30:39.411Z,20.23
2018-02-10T22:33:06.914Z,21.83
2018-02-10T22:35:35.942Z,21.47
2018-02-10T22:38:04.210Z,20.07
2018-02-10T22:40:32.506Z,19.13
2018-02-10T22:43:00.024Z,18.23
2018-02-10T22:45:29.283Z,19.70
2018-02-10T22:47:56.819Z,17.83
2018-02-10T22:50:24.338Z,19.57
2018-02-10T22:52:51.843Z,19.20
2018-02-10T22:55:19.362Z,17.27
2018-02-10T22:57:46.969Z,17.10
2018-02-10T23:00:14.486Z,16.60
2018-02-10T23:02:41.989Z,17.97
2018-02-10T23:05:09.510Z,17.60
2018-02-10T23:07:37.815Z,15.70
2018-02-10T23:10:05.338Z,16.23
2018-02-10T23:12:32.930Z,15.73
2018-02-10T23:15:00.454Z,15.70
2018-02-10T23:17:27.966Z,15.63
2018-02-10T23:19:55.490Z,15.73
2018-02-10T23:22:23.778Z,15.83
2018-02-10T23:24:51.307Z,14.63
2018-02-10T23:27:19.615Z,14.70
2018-02-10T23:29:47.182Z,13.47
2018-02-10T23:32:14.686Z,16.00
2018-02-10T23:34:42.187Z,13.50
2018-02-10T23:37:09.755Z,15.30
2018-02-10T23:39:37.270Z,13.83
2018-02-10T23:42:04.789Z,13.47
2018-02-10T23:44:32.337Z,14.50
2018-02-10T23:46:59.858Z,13.47
2018-02-10T23:49:28.126Z,14.07
2018-02-10T23:51:55.714Z,14.57
2018-02-10T23:54:23.213Z,14.80
2018-02-10T23:56:50.738Z,15.20
2018-02-10T23:59:18.290Z,14.80
